Trempealeau, WI (54661)

08:25 PM CDT die 25o August, anno 2016 (GMT -0500)
Nodine, mn | | Change Station

Elev 1270 ft 43.91 °N, 91.42 °W | Updated 1 second ago

Clear
Serena
67.1 °F
Feels Like 67.1 °F
N
4.9
Ventus Variabilis Ventus from Zephyrus
Gusts 4.9 mph

Hodie
High -- | Low -- °F
--% Chance of Precip.
Yesterday
High -- | Low -- °F
Precip. -- in
Pressio 30.03 in
Visibilitas 10.0 milia passuum
Clouds Serena
Frigus in quo Ros apparet 59 °F
Umor 75%
Rainfall 0.00 in
Snow Depth Not available.
6:21 AM 7:52 PM
Last Quarter, 40% visible
METAR KLSE 260053Z 32010KT 10SM CLR 22/14 A3005 RMK AO2 SLP167 T02220144
Pressio 30.03 in
Visibilitas 10.0 milia passuum
Clouds Serena
Frigus in quo Ros apparet 59 °F
Umor 75%
Rainfall 0.00 in
Snow Depth Not available.
6:21 AM 7:52 PM
Last Quarter, 40% visible
METAR KLSE 260053Z 32010KT 10SM CLR 22/14 A3005 RMK AO2 SLP167 T02220144
A tropical disturbance pushing toward the Bahamas, is expected to develop into a tropical depression or storm, and will likely target Florida and the Gulf Coast this weekend into next week.

Right now, the disturbance remains a broad area of low pressure pushing through the Dominican Republic and Haiti, headed toward the southeast Bahamas. Rainfall totals over 3 inches (with locally higher amounts) are expected in HispaƱiola, particularly over elevated terrain.

10-Day Weather Forecast

Almanac

Astronomy

Aug. 25, 2016 Rise Set
Actual Time
Civil Twilight
Nautical Twilight
Astronomical Twilight
Moon
Length Of Visible Light
Length of Day
Tomorrow will be .
, % of the Moon is Illuminated

Today's Extremes

State Highs State Lows

Community

WunderPhotos

Upload Photos

1,935,005 photos uploaded!

WunderBlog® & News

Nearby

Air Quality

  Air Quality AQ Index Pollutant
Not available.

Snow Depth

Station Depth Elevation

Earthquake Activity

City Distance Mag. Time & Date
Minimum magnitude displayed is 2.5.

Coastal Water Temperatures

Locus Calor

Stations

Nearby Weather Stations

Station Location Temp Frigus Venti Frigus in quo Ros apparet Umor Ventus Precip. Elev Renovata Type
                   

Watches & Warnings

There are currently no watches in effect.